KSCR/SCR METAR and TAF weather

Enter ICAO airport designator
Station Type Date Time Source
KSCR METAR 2019/12/07 04:55 UTC NOAA

KSCR 070455Z AUTO 00000KT 10SM SCT080 OVC110 05/04 A3018 RMK AO2 T00520039


Station Type Date Time Source
KSCR Decoded METAR 2019/12/07 04:55 UTC NOAA

Station name not available
Dec 06, 2019 - 11:55 PM EST / 2019.12.07 0455 UTC
Wind: Calm:0
Visibility: 10 mile(s):0
Sky conditions: overcast
Temperature: 41.4 F (5.2 C)
Dew Point: 39.0 F (3.9 C)
Relative Humidity: 91%
Pressure (altimeter): 30.18 in. Hg (1022 hPa)
ob: KSCR 070455Z AUTO 00000KT 10SM SCT080 OVC110 05/04 A3018 RMK AO2 T00520039
cycle: 5

Station Type Date Time Source
KSCR TAF UTC NOAA

Error!

Example: see airport list